Time;durP1;ratioP1;P1;durP2;ratioP2;P2;SDS_P1;SDS_P2;PMS_P1;PMS_P2;Temp;Humidity;BMP_temperature;BMP_pressure;BME280_temperature;BME280_humidity;BME280_pressure;Samples;Min_cycle;Max_cycle;Signal;HPM_P1;HPM_P2
2022/03/20 00:01:23;;;;;;;17.23;12.93;;;;;;;4.20;nan;99226.25;5053598;28;20661;-70
2022/03/20 00:03:49;;;;;;;16.53;13.43;;;;;;;4.15;nan;99225.84;5053795;28;20316;-69
2022/03/20 00:06:16;;;;;;;14.77;13.07;;;;;;;4.14;nan;99222.41;5053293;28;20205;-70
2022/03/20 00:08:42;;;;;;;18.33;14.03;;;;;;;4.14;nan;99230.31;5053402;28;20624;-70
2022/03/20 00:11:09;;;;;;;16.53;13.33;;;;;;;4.15;nan;99218.78;5053756;28;20607;-70
2022/03/20 00:13:35;;;;;;;15.53;12.80;;;;;;;4.15;nan;99223.22;5053605;28;20209;-70
2022/03/20 00:16:01;;;;;;;19.10;14.57;;;;;;;4.11;nan;99222.69;5053598;28;20251;-70
2022/03/20 00:18:28;;;;;;;16.83;14.33;;;;;;;4.05;nan;99225.09;5052417;28;20220;-70
2022/03/20 00:20:59;;;;;;;17.13;12.97;;;;;;;4.02;nan;99225.41;5053684;28;20205;-70
2022/03/20 00:23:26;;;;;;;19.83;12.27;;;;;;;4.17;nan;99216.00;5053563;28;20205;-70
2022/03/20 00:25:54;;;;;;;14.47;11.97;;;;;;;4.22;nan;99205.84;5053574;28;20205;-70
2022/03/20 00:28:23;;;;;;;14.67;12.60;;;;;;;4.22;nan;99205.84;5053541;28;20201;-70
2022/03/20 00:30:50;;;;;;;17.43;13.33;;;;;;;4.23;nan;99210.13;5053376;28;20205;-70
2022/03/20 00:33:17;;;;;;;15.13;12.37;;;;;;;4.21;nan;99212.09;5053484;28;20201;-70
2022/03/20 00:35:44;;;;;;;14.77;12.30;;;;;;;4.27;nan;99209.69;5052445;28;20229;-70
2022/03/20 00:38:10;;;;;;;16.63;12.63;;;;;;;4.33;nan;99211.72;5052596;28;20572;-70
2022/03/20 00:40:37;;;;;;;14.67;12.40;;;;;;;4.30;nan;99214.63;5053168;28;20665;-70
2022/03/20 00:43:05;;;;;;;15.70;12.40;;;;;;;4.26;nan;99202.78;5053464;28;20205;-70
2022/03/20 00:45:32;;;;;;;16.13;12.90;;;;;;;4.29;nan;99205.09;5053040;28;20221;-70
2022/03/20 00:47:58;;;;;;;15.47;12.50;;;;;;;4.20;nan;99200.75;5053321;28;20296;-70
2022/03/20 00:50:25;;;;;;;14.47;12.13;;;;;;;4.26;nan;99202.78;5053050;28;20668;-70
2022/03/20 00:52:51;;;;;;;18.13;12.17;;;;;;;4.27;nan;99203.59;5053562;28;20201;-70
2022/03/20 00:55:19;;;;;;;16.20;12.17;;;;;;;4.35;nan;99193.97;5053022;28;20729;-70
2022/03/20 00:57:46;;;;;;;14.43;12.23;;;;;;;4.35;nan;99193.13;5052996;28;20205;-70
2022/03/20 01:00:13;;;;;;;16.10;12.07;;;;;;;4.34;nan;99199.41;5053211;28;20201;-70
2022/03/20 01:02:44;;;;;;;13.33;11.47;;;;;;;4.34;nan;99200.19;5053214;28;20565;-70
2022/03/20 01:05:11;;;;;;;17.40;13.13;;;;;;;4.33;nan;99201.19;5053187;28;20221;-70
2022/03/20 01:07:38;;;;;;;16.87;12.50;;;;;;;4.36;nan;99193.00;5053223;28;20205;-70
2022/03/20 01:10:05;;;;;;;16.67;12.37;;;;;;;4.37;nan;99193.81;5053192;28;20205;-70
2022/03/20 01:12:33;;;;;;;18.23;12.80;;;;;;;4.29;nan;99191.94;5053158;28;20216;-70
2022/03/20 01:15:00;;;;;;;14.73;12.63;;;;;;;4.38;nan;99195.47;5052849;28;20233;-70
2022/03/20 01:17:26;;;;;;;15.20;12.47;;;;;;;4.33;nan;99189.81;5053062;28;20205;-70
2022/03/20 01:19:53;;;;;;;15.83;12.97;;;;;;;4.27;nan;99187.81;5053101;28;20209;-70
2022/03/20 01:22:19;;;;;;;17.60;12.70;;;;;;;4.20;nan;99184.13;5053465;28;20621;-70
2022/03/20 01:24:46;;;;;;;15.90;13.30;;;;;;;4.20;nan;99178.88;5053005;28;20225;-70
2022/03/20 01:27:13;;;;;;;18.30;13.70;;;;;;;4.17;nan;99180.00;5053009;28;20261;-70
2022/03/20 01:29:40;;;;;;;19.17;12.90;;;;;;;4.21;nan;99180.53;5052979;28;20213;-70
2022/03/20 01:32:07;;;;;;;16.63;12.83;;;;;;;4.18;nan;99181.66;5052689;28;20206;-70
2022/03/20 01:34:34;;;;;;;17.33;12.20;;;;;;;4.15;nan;99181.94;5052257;28;20279;-70
2022/03/20 01:37:00;;;;;;;15.53;12.30;;;;;;;4.26;nan;99179.09;5052877;28;20300;-70
2022/03/20 01:39:26;;;;;;;17.30;12.60;;;;;;;4.23;nan;99176.75;5052894;28;20205;-70
2022/03/20 01:41:53;;;;;;;13.73;11.67;;;;;;;4.33;nan;99171.38;5052538;28;20667;-70
2022/03/20 01:44:19;;;;;;;14.47;11.90;;;;;;;4.34;nan;99171.25;5052761;28;20229;-70
2022/03/20 01:46:45;;;;;;;18.17;12.90;;;;;;;4.29;nan;99175.34;5052478;28;20218;-70
2022/03/20 01:49:12;;;;;;;14.67;12.73;;;;;;;4.21;nan;99175.25;5055531;28;20687;-70
2022/03/20 01:54:22;;;;;;;14.57;12.20;;;;;;;4.20;nan;99165.72;5056084;28;20279;-70
2022/03/20 01:56:49;;;;;;;16.40;12.90;;;;;;;4.10;nan;99167.56;5055802;28;20229;-70
2022/03/20 01:59:18;;;;;;;14.03;11.53;;;;;;;4.08;nan;99159.03;5056229;28;20205;-70
2022/03/20 02:01:45;;;;;;;18.83;12.97;;;;;;;4.07;nan;99155.56;5056198;28;20227;-70
2022/03/20 02:04:15;;;;;;;14.97;12.00;;;;;;;4.12;nan;99147.22;5056097;28;20228;-70
2022/03/20 02:06:43;;;;;;;16.17;12.53;;;;;;;4.23;nan;99152.22;5055800;28;20197;-70
2022/03/20 02:09:10;;;;;;;15.97;12.97;;;;;;;4.20;nan;99155.19;5055969;28;20201;-69
2022/03/20 02:11:37;;;;;;;14.73;12.50;;;;;;;4.16;nan;99157.28;5056020;28;20212;-70
2022/03/20 02:14:05;;;;;;;16.57;12.80;;;;;;;4.12;nan;99155.91;5055859;28;20236;-70
2022/03/20 02:16:32;;;;;;;17.83;12.50;;;;;;;4.12;nan;99148.03;5055888;28;20252;-70
2022/03/20 02:18:59;;;;;;;16.33;12.83;;;;;;;4.11;nan;99158.72;5055802;28;20220;-70
2022/03/20 02:21:46;;;;;;;15.63;12.63;;;;;;;4.07;nan;99155.56;5055861;28;20209;-70
2022/03/20 02:24:31;;;;;;;15.13;12.40;;;;;;;4.10;nan;99151.78;5055717;28;20229;-70
2022/03/20 02:27:16;;;;;;;17.97;12.93;;;;;;;4.06;nan;99145.16;5055672;28;20201;-70
2022/03/20 02:29:45;;;;;;;17.27;13.07;;;;;;;4.06;nan;99146.00;5055733;28;20289;-70
2022/03/20 02:32:15;;;;;;;15.07;12.33;;;;;;;4.11;nan;99137.69;5055276;28;20208;-70
2022/03/20 02:34:42;;;;;;;17.23;12.60;;;;;;;4.10;nan;99138.63;5055424;28;20322;-70
2022/03/20 02:37:09;;;;;;;16.70;13.30;;;;;;;4.02;nan;99128.06;5055548;28;20209;-70
2022/03/20 02:39:36;;;;;;;16.07;12.50;;;;;;;4.02;nan;99130.69;5055492;28;20609;-71
2022/03/20 02:42:05;;;;;;;18.07;13.37;;;;;;;4.04;nan;99126.09;5055483;28;20231;-70
2022/03/20 02:44:53;;;;;;;16.97;13.13;;;;;;;4.04;nan;99123.47;5055037;28;20593;-70
2022/03/20 02:47:23;;;;;;;17.87;13.20;;;;;;;3.99;nan;99123.09;5055991;28;20185;-70
2022/03/20 02:50:06;;;;;;;15.07;12.20;;;;;;;3.99;nan;99131.81;5055004;28;20206;-70
2022/03/20 02:52:42;;;;;;;18.10;13.33;;;;;;;3.93;nan;99128.97;5055248;28;20203;-70
2022/03/20 02:55:09;;;;;;;16.43;13.67;;;;;;;3.92;nan;99124.66;5054756;28;20691;-70
2022/03/20 02:57:36;;;;;;;17.03;13.23;;;;;;;3.97;nan;99132.97;5054813;28;20209;-70
2022/03/20 03:00:06;;;;;;;15.77;13.23;;;;;;;3.97;nan;99127.69;5054673;28;20244;-70
2022/03/20 03:02:43;;;;;;;15.10;12.47;;;;;;;3.98;nan;99129.34;5055064;28;20209;-70
2022/03/20 03:05:14;;;;;;;17.27;13.07;;;;;;;3.99;nan;99125.72;5055016;28;20225;-70
2022/03/20 03:13:11;;;;;;;15.03;13.13;;;;;;;4.02;nan;99130.69;5054616;28;20657;-70
2022/03/20 03:15:38;;;;;;;14.87;12.40;;;;;;;3.97;nan;99132.97;5054740;28;20229;-70
2022/03/20 03:18:05;;;;;;;17.87;13.60;;;;;;;4.00;nan;99130.00;5054436;28;20205;-70
2022/03/20 03:20:33;;;;;;;16.53;13.10;;;;;;;4.00;nan;99135.25;5054567;28;20205;-70
2022/03/20 03:22:59;;;;;;;16.40;13.27;;;;;;;4.00;nan;99135.25;5054337;28;20668;-70
2022/03/20 03:25:26;;;;;;;16.93;13.87;;;;;;;3.97;nan;99135.59;5054589;28;20221;-70
2022/03/20 03:27:54;;;;;;;14.97;12.50;;;;;;;3.98;nan;99140.66;5054303;28;20660;-70
2022/03/20 03:30:21;;;;;;;17.10;12.90;;;;;;;3.96;nan;99145.28;5054071;28;20205;-70
2022/03/20 03:32:47;;;;;;;16.53;13.27;;;;;;;3.93;nan;99144.75;5054364;28;20212;-70
2022/03/20 03:38:02;;;;;;;20.47;13.13;;;;;;;3.91;nan;99149.31;5052162;28;20205;-70
2022/03/20 03:40:28;;;;;;;16.77;13.10;;;;;;;3.87;nan;99146.19;5054285;28;20299;-70
2022/03/20 03:42:55;;;;;;;15.57;13.97;;;;;;;3.89;nan;99143.41;5054275;28;20525;-70
2022/03/20 03:45:23;;;;;;;18.23;13.03;;;;;;;3.82;nan;99143.16;5053804;28;20232;-70
2022/03/20 03:47:50;;;;;;;17.43;13.47;;;;;;;3.89;nan;99141.56;5054251;28;20202;-70
2022/03/20 03:50:17;;;;;;;17.90;13.70;;;;;;;3.87;nan;99146.19;5054219;28;20205;-70
2022/03/20 03:52:43;;;;;;;15.03;13.07;;;;;;;3.95;nan;99137.53;5054170;28;20213;-70
2022/03/20 03:55:09;;;;;;;15.40;13.03;;;;;;;4.00;nan;99148.41;5053811;28;20221;-70
2022/03/20 03:57:36;;;;;;;14.77;13.00;;;;;;;4.06;nan;99146.00;5053865;28;20212;-70
2022/03/20 04:00:04;;;;;;;18.33;13.43;;;;;;;4.05;nan;99147.00;5054197;28;20300;-70
2022/03/20 04:02:30;;;;;;;17.20;13.67;;;;;;;4.12;nan;99136.69;5054108;28;20213;-70
2022/03/20 04:04:57;;;;;;;17.70;13.67;;;;;;;4.14;nan;99143.47;5053760;28;20610;-70
2022/03/20 04:07:23;;;;;;;15.57;13.20;;;;;;;4.16;nan;99141.47;5053744;28;20209;-70
2022/03/20 04:09:49;;;;;;;16.23;13.07;;;;;;;4.16;nan;99145.94;5053448;28;20209;-70
2022/03/20 04:12:16;;;;;;;17.63;13.73;;;;;;;4.19;nan;99137.72;5053186;28;20573;-70
2022/03/20 04:14:45;;;;;;;16.43;13.40;;;;;;;4.23;nan;99141.69;5053631;28;20248;-70
2022/03/20 04:17:11;;;;;;;17.20;14.83;;;;;;;4.28;nan;99140.28;5053578;28;20252;-70
2022/03/20 04:19:38;;;;;;;15.43;13.37;;;;;;;4.24;nan;99138.09;5053625;28;20201;-70
2022/03/20 04:22:05;;;;;;;17.33;13.63;;;;;;;4.24;nan;99146.81;5053324;28;20568;-70
2022/03/20 04:24:32;;;;;;;16.27;14.57;;;;;;;4.16;nan;99140.69;5053243;28;20226;-70
2022/03/20 04:26:58;;;;;;;18.40;14.23;;;;;;;4.09;nan;99148.34;5053352;28;20215;-70
2022/03/20 04:29:27;;;;;;;16.43;13.67;;;;;;;4.02;nan;99144.66;5053502;28;20258;-70
2022/03/20 04:31:54;;;;;;;17.00;13.60;;;;;;;4.02;nan;99146.47;5053185;28;20619;-70
2022/03/20 04:34:24;;;;;;;16.67;13.30;;;;;;;3.99;nan;99149.41;5053199;28;20240;-70
2022/03/20 04:36:51;;;;;;;16.97;14.40;;;;;;;3.99;nan;99150.25;5053382;28;20616;-70
2022/03/20 04:39:17;;;;;;;18.03;14.47;;;;;;;4.03;nan;99141.03;5053300;28;20211;-70
2022/03/20 04:41:46;;;;;;;17.87;14.33;;;;;;;4.04;nan;99147.16;5053391;28;20205;-70
2022/03/20 04:44:13;;;;;;;19.77;14.47;;;;;;;4.04;nan;99155.03;5053220;28;20221;-70
2022/03/20 04:46:40;;;;;;;18.30;15.03;;;;;;;4.03;nan;99148.94;5053245;28;20235;-71
2022/03/20 05:00:05;;;;;;;19.33;15.40;;;;;;;4.45;nan;99155.22;5053152;28;20177;-70
2022/03/20 05:02:31;;;;;;;17.67;14.67;;;;;;;4.48;nan;99161.97;5053244;28;20212;-70
2022/03/20 05:04:57;;;;;;;18.70;14.67;;;;;;;4.52;nan;99165.97;5053178;28;20231;-70
2022/03/20 05:07:24;;;;;;;20.57;16.00;;;;;;;4.51;nan;99159.00;5053107;28;20205;-70
2022/03/20 05:15:18;;;;;;;18.47;15.47;;;;;;;4.64;nan;99162.06;5052836;28;20211;-70
2022/03/20 05:17:44;;;;;;;17.87;14.17;;;;;;;4.63;nan;99161.25;5053072;28;20213;-70
2022/03/20 05:20:11;;;;;;;19.10;16.00;;;;;;;4.62;nan;99164.84;5052732;28;20566;-70
2022/03/20 05:22:39;;;;;;;21.87;16.73;;;;;;;4.68;nan;99152.88;5053384;28;20599;-70
2022/03/20 05:25:09;;;;;;;24.43;16.40;;;;;;;4.64;nan;99167.34;5056569;28;20703;-70
2022/03/20 05:27:37;;;;;;;20.07;15.97;;;;;;;4.63;nan;99168.34;5056906;28;20205;-70
2022/03/20 05:30:07;;;;;;;18.40;16.33;;;;;;;4.63;nan;99177.06;5056837;28;20212;-71
2022/03/20 05:32:36;;;;;;;19.63;16.13;;;;;;;4.66;nan;99171.47;5056691;28;20209;-70
2022/03/20 05:35:08;;;;;;;19.50;16.33;;;;;;;4.71;nan;99176.28;5056353;28;20237;-70
2022/03/20 05:37:34;;;;;;;21.17;15.87;;;;;;;4.73;nan;99171.69;5056512;28;20627;-70
2022/03/20 05:40:01;;;;;;;20.23;16.20;;;;;;;4.77;nan;99178.28;5056642;28;20213;-70
2022/03/20 05:42:27;;;;;;;19.80;16.87;;;;;;;4.79;nan;99173.72;5056473;28;20212;-70
2022/03/20 05:44:54;;;;;;;19.43;15.83;;;;;;;4.83;nan;99180.31;5056380;28;20236;-70
2022/03/20 05:47:20;;;;;;;18.50;16.03;;;;;;;4.90;nan;99173.44;5056185;28;20667;-70
2022/03/20 05:49:47;;;;;;;20.27;16.40;;;;;;;4.96;nan;99186.81;5056459;28;20236;-70
2022/03/20 05:52:14;;;;;;;20.37;16.70;;;;;;;5.01;nan;99188.97;5056285;28;20212;-70
2022/03/20 05:54:41;;;;;;;21.93;17.20;;;;;;;5.06;nan;99192.00;5056300;28;20320;-70
2022/03/20 05:59:53;;;;;;;19.93;16.70;;;;;;;5.16;nan;99188.22;5056328;28;20247;-70
2022/03/20 06:02:21;;;;;;;22.67;17.27;;;;;;;5.23;nan;99197.19;5056213;28;20201;-70
2022/03/20 06:04:48;;;;;;;19.53;17.10;;;;;;;5.26;nan;99196.88;5055829;28;20708;-70
2022/03/20 06:07:14;;;;;;;19.87;16.00;;;;;;;5.36;nan;99191.47;5055757;28;20201;-70
2022/03/20 06:09:41;;;;;;;20.17;16.47;;;;;;;5.33;nan;99197.06;5056024;28;20567;-70
2022/03/20 06:12:08;;;;;;;21.83;17.33;;;;;;;5.36;nan;99202.84;5056058;28;20215;-70
2022/03/20 06:14:35;;;;;;;22.33;17.37;;;;;;;5.40;nan;99198.91;5055643;28;20703;-70
2022/03/20 06:17:02;;;;;;;21.80;17.20;;;;;;;5.50;nan;99199.59;5055487;28;20221;-70
2022/03/20 06:19:29;;;;;;;21.30;17.27;;;;;;;5.59;nan;99198.66;5055710;28;20205;-71
2022/03/20 06:21:55;;;;;;;20.27;17.13;;;;;;;5.67;nan;99203.13;5055584;28;20209;-70
2022/03/20 06:24:21;;;;;;;19.70;16.97;;;;;;;5.69;nan;99204.59;5055364;28;20225;-71
2022/03/20 06:26:48;;;;;;;20.63;16.97;;;;;;;5.72;nan;99200.81;5055392;28;20660;-70
2022/03/20 06:29:14;;;;;;;21.50;17.07;;;;;;;5.75;nan;99203.16;5055527;28;20227;-70
2022/03/20 06:31:41;;;;;;;21.43;17.63;;;;;;;5.78;nan;99208.09;5055563;28;20211;-70
2022/03/20 06:34:08;;;;;;;21.37;17.50;;;;;;;5.80;nan;99208.78;5055297;28;20237;-70
2022/03/20 06:36:35;;;;;;;21.57;17.97;;;;;;;5.83;nan;99211.13;5055330;28;20206;-70
2022/03/20 06:39:02;;;;;;;21.80;17.47;;;;;;;5.83;nan;99219.03;5055104;28;20638;-70
2022/03/20 06:41:28;;;;;;;24.97;18.03;;;;;;;5.83;nan;99214.56;5055116;28;20209;-70
2022/03/20 06:43:55;;;;;;;23.50;18.40;;;;;;;5.88;nan;99219.38;5054900;28;20236;-70
2022/03/20 06:46:22;;;;;;;22.63;18.00;;;;;;;5.92;nan;99226.81;5054907;28;20208;-70
2022/03/20 06:48:48;;;;;;;22.00;18.43;;;;;;;5.97;nan;99228.97;5054861;28;20216;-70
2022/03/20 06:51:17;;;;;;;21.10;17.70;;;;;;;6.03;nan;99220.41;5054879;28;20660;-70
2022/03/20 06:53:44;;;;;;;22.83;19.07;;;;;;;6.14;nan;99215.63;5055097;28;20208;-70
2022/03/20 06:56:10;;;;;;;23.00;18.60;;;;;;;6.16;nan;99224.22;5055105;28;20253;-70
2022/03/20 06:58:36;;;;;;;24.60;17.77;;;;;;;6.26;nan;99224.91;5055175;28;20201;-70
2022/03/20 07:01:03;;;;;;;23.57;18.40;;;;;;;6.37;nan;99215.81;5055059;28;20205;-70
2022/03/20 07:03:29;;;;;;;21.90;17.60;;;;;;;6.44;nan;99224.75;5054587;28;20205;-70
2022/03/20 07:05:55;;;;;;;23.17;18.57;;;;;;;6.45;nan;99231.66;5055438;28;20217;-70
2022/03/20 07:08:22;;;;;;;23.53;18.27;;;;;;;6.44;nan;99230.88;5054790;28;20205;-70
2022/03/20 07:10:48;;;;;;;23.23;18.17;;;;;;;6.47;nan;99232.34;5054543;28;20668;-70
2022/03/20 07:15:59;;;;;;;22.67;19.03;;;;;;;6.54;nan;99242.09;5054868;28;20223;-70
2022/03/20 07:18:25;;;;;;;22.43;18.67;;;;;;;6.58;nan;99242.56;5054438;28;20709;-70
2022/03/20 07:20:54;;;;;;;21.40;18.40;;;;;;;6.64;nan;99255.94;5054392;28;20675;-70
2022/03/20 07:23:22;;;;;;;21.23;18.40;;;;;;;6.73;nan;99254.97;5054618;28;20216;-70
2022/03/20 07:31:16;;;;;;;20.77;17.67;;;;;;;6.93;nan;99268.66;5054347;28;20536;-70
2022/03/20 07:33:43;;;;;;;21.63;18.53;;;;;;;7.22;nan;99267.16;5053880;28;20209;-70
2022/03/20 07:36:09;;;;;;;24.47;19.33;;;;;;;7.12;nan;99263.03;5053034;28;20220;-70
2022/03/20 07:38:36;;;;;;;25.40;19.27;;;;;;;7.21;nan;99276.09;5053476;28;20212;-70
2022/03/20 07:41:02;;;;;;;21.47;18.30;;;;;;;7.28;nan;99266.47;5053382;28;20201;-71
2022/03/20 07:43:29;;;;;;;22.13;18.60;;;;;;;7.32;nan;99262.50;5053225;28;20205;-70
2022/03/20 07:45:56;;;;;;;23.43;18.93;;;;;;;7.31;nan;99265.28;5052762;28;20209;-70
2022/03/20 07:48:23;;;;;;;21.97;18.17;;;;;;;7.44;nan;99266.44;5053226;28;20216;-70
2022/03/20 07:50:51;;;;;;;23.60;18.50;;;;;;;7.50;nan;99267.56;5053257;28;20216;-70
2022/03/20 07:53:18;;;;;;;22.20;19.30;;;;;;;7.60;nan;99281.44;5052866;28;20209;-70
2022/03/20 07:55:45;;;;;;;21.13;18.53;;;;;;;7.57;nan;99273.84;5053588;28;20228;-70
2022/03/20 07:58:12;;;;;;;24.43;19.43;;;;;;;7.72;nan;99283.53;5053035;28;20227;-70
2022/03/20 08:00:40;;;;;;;25.23;19.43;;;;;;;7.73;nan;99276.41;5052711;28;20211;-70
2022/03/20 08:03:06;;;;;;;21.30;17.80;;;;;;;7.85;nan;99277.69;5052847;28;20304;-70
2022/03/20 08:05:33;;;;;;;24.77;18.90;;;;;;;7.90;nan;99268.25;5052585;28;20222;-70
2022/03/20 08:08:03;;;;;;;21.90;18.37;;;;;;;7.99;nan;99269.00;5052908;28;20197;-70
2022/03/20 08:10:30;;;;;;;23.80;17.87;;;;;;;8.02;nan;99261.56;5052513;28;20232;-70
2022/03/20 08:12:56;;;;;;;24.23;19.17;;;;;;;7.94;nan;99269.56;5052537;28;20216;-70
2022/03/20 08:15:24;;;;;;;22.60;19.07;;;;;;;8.02;nan;99269.53;5052396;28;20235;-71
2022/03/20 08:17:51;;;;;;;22.83;18.93;;;;;;;8.00;nan;99266.19;5052577;28;20240;-70
2022/03/20 08:20:18;;;;;;;24.30;19.20;;;;;;;8.19;nan;99251.72;5052106;28;20683;-70
2022/03/20 08:22:45;;;;;;;21.37;18.93;;;;;;;8.46;nan;99264.47;5052262;28;20209;-70
2022/03/20 08:25:12;;;;;;;22.17;19.00;;;;;;;8.35;nan;99264.88;5052544;28;20236;-70
2022/03/20 08:27:49;;;;;;;22.30;18.47;;;;;;;8.62;nan;99267.00;5052635;28;20208;-70
2022/03/20 08:30:17;;;;;;;24.03;19.50;;;;;;;8.60;nan;99276.97;5052692;28;20205;-70
2022/03/20 08:32:47;;;;;;;24.17;19.30;;;;;;;8.69;nan;99276.72;5052546;28;20201;-70
2022/03/20 08:35:15;;;;;;;21.97;19.60;;;;;;;8.78;nan;99273.00;5008858;28;1249685;-70
2022/03/20 08:37:43;;;;;;;21.47;18.40;;;;;;;8.89;nan;99275.25;5053112;28;20225;-70
2022/03/20 08:40:16;;;;;;;22.20;19.27;;;;;;;8.89;nan;99277.06;5053193;28;20213;-69
2022/03/20 08:42:48;;;;;;;22.57;19.13;;;;;;;8.88;nan;99270.91;5052922;28;20636;-70
2022/03/20 08:45:16;;;;;;;22.63;19.43;;;;;;;8.94;nan;99275.53;5053135;28;20291;-70
2022/03/20 08:47:43;;;;;;;21.80;19.47;;;;;;;8.99;nan;99280.28;5053185;28;20221;-70
2022/03/20 08:50:10;;;;;;;24.03;18.83;;;;;;;9.07;nan;99282.88;5052776;28;20205;-70
2022/03/20 08:52:37;;;;;;;22.77;19.60;;;;;;;9.30;nan;99281.00;5053098;28;20209;-70
2022/03/20 08:55:09;;;;;;;23.67;19.27;;;;;;;9.30;nan;99289.78;5052731;28;20726;-70
2022/03/20 08:57:40;;;;;;;23.70;19.53;;;;;;;9.18;nan;99293.88;5053838;28;20205;-70
2022/03/20 09:00:12;;;;;;;22.50;18.67;;;;;;;9.48;nan;99298.22;5057263;28;20197;-70
2022/03/20 09:02:39;;;;;;;23.13;18.93;;;;;;;9.79;nan;99303.34;5057091;28;20209;-70
2022/03/20 09:05:06;;;;;;;21.47;18.80;;;;;;;9.59;nan;99303.06;5056790;28;20704;-70
2022/03/20 09:07:33;;;;;;;20.73;18.13;;;;;;;9.69;nan;99300.16;5056978;28;20201;-70
2022/03/20 09:09:59;;;;;;;24.13;19.50;;;;;;;9.69;nan;99298.31;5057047;28;20227;-70
2022/03/20 09:12:26;;;;;;;24.43;19.07;;;;;;;10.01;nan;99299.78;5056984;28;20215;-70
2022/03/20 09:14:52;;;;;;;24.67;19.57;;;;;;;10.14;nan;99300.78;5056599;28;20328;-70
2022/03/20 09:20:03;;;;;;;21.60;18.50;;;;;;;10.18;nan;99307.38;5056568;28;20176;-70
2022/03/20 09:22:29;;;;;;;20.60;18.40;;;;;;;10.58;nan;99298.00;5056733;28;20223;-70
2022/03/20 09:24:56;;;;;;;22.47;18.80;;;;;;;10.76;nan;99303.72;5056216;28;20308;-70
2022/03/20 09:27:22;;;;;;;21.87;19.20;;;;;;;10.82;nan;99305.63;5056526;28;20201;-70
2022/03/20 09:29:50;;;;;;;21.20;18.87;;;;;;;10.79;nan;99295.38;5056629;28;20231;-70
2022/03/20 09:32:17;;;;;;;20.83;18.00;;;;;;;10.74;nan;99295.13;5056634;28;20201;-70
2022/03/20 09:34:43;;;;;;;23.33;20.67;;;;;;;10.99;nan;99293.69;5055955;28;20661;-70
2022/03/20 09:37:10;;;;;;;24.20;19.90;;;;;;;11.16;nan;99299.59;5056095;28;20221;-71
2022/03/20 09:39:36;;;;;;;22.23;19.23;;;;;;;11.01;nan;99299.66;5056188;28;20201;-70
2022/03/20 09:42:03;;;;;;;21.97;19.43;;;;;;;11.10;nan;99304.66;5056128;28;20296;-70
2022/03/20 09:44:33;;;;;;;23.33;19.47;;;;;;;11.51;nan;99309.28;5055717;28;20708;-70
2022/03/20 09:47:00;;;;;;;21.80;18.67;;;;;;;11.44;nan;99311.09;5056057;28;20204;-70
2022/03/20 09:49:26;;;;;;;24.70;19.10;;;;;;;11.64;nan;99309.41;5055763;28;20660;-70
2022/03/20 09:51:54;;;;;;;22.93;18.67;;;;;;;11.87;nan;99310.78;5056575;28;20258;-70
2022/03/20 09:54:21;;;;;;;21.60;18.20;;;;;;;12.01;nan;99315.16;5056048;28;20225;-70
2022/03/20 09:56:51;;;;;;;20.90;17.97;;;;;;;12.29;nan;99315.09;5055511;28;20594;-70
2022/03/20 09:59:18;;;;;;;21.63;17.30;;;;;;;12.88;nan;99316.09;5056048;28;20288;-70
2022/03/20 10:01:44;;;;;;;20.67;18.57;;;;;;;12.83;nan;99311.34;5055550;28;20216;-70
2022/03/20 10:04:16;;;;;;;21.23;17.30;;;;;;;12.66;nan;99310.06;5055795;28;20232;-70
2022/03/20 10:06:44;;;;;;;20.10;17.87;;;;;;;12.68;nan;99321.38;5055851;28;20201;-71
2022/03/20 10:09:12;;;;;;;24.07;19.30;;;;;;;12.77;nan;99322.00;5055003;28;20212;-70
2022/03/20 10:11:51;;;;;;;23.57;17.90;;;;;;;12.74;nan;99325.88;5055726;28;20211;-70
2022/03/20 10:14:17;;;;;;;21.33;16.67;;;;;;;12.79;nan;99318.09;5055325;28;20237;-71
2022/03/20 10:16:50;;;;;;;22.10;14.90;;;;;;;12.82;nan;99320.38;5055702;28;20290;-70
2022/03/20 10:19:22;;;;;;;18.90;14.60;;;;;;;13.02;nan;99318.56;5055597;28;20284;-70
2022/03/20 10:21:53;;;;;;;19.93;15.13;;;;;;;13.47;nan;99328.44;5055121;28;20212;-70
2022/03/20 10:24:23;;;;;;;19.03;16.63;;;;;;;13.61;nan;99327.41;5055129;28;20727;-71
2022/03/20 10:27:14;;;;;;;19.23;15.03;;;;;;;13.56;nan;99327.22;5055061;28;20218;-70
2022/03/20 10:29:58;;;;;;;17.10;15.27;;;;;;;13.62;nan;99318.34;5048497;28;20212;-70
2022/03/20 10:32:25;;;;;;;19.23;14.67;;;;;;;13.46;nan;99324.16;5055553;28;20235;-70
2022/03/20 10:34:53;;;;;;;18.30;13.57;;;;;;;13.58;nan;99329.69;5055233;28;20625;-70
2022/03/20 10:37:22;;;;;;;18.27;13.37;;;;;;;13.51;nan;99321.66;5055204;28;20568;-70
2022/03/20 10:39:48;;;;;;;16.40;13.87;;;;;;;13.63;nan;99332.56;5055986;28;20209;-71
2022/03/20 10:42:18;;;;;;;18.30;14.47;;;;;;;13.59;nan;99334.00;5054730;28;20217;-70
2022/03/20 10:44:45;;;;;;;17.20;15.37;;;;;;;13.72;nan;99331.31;5054754;28;20674;-70
2022/03/20 10:47:16;;;;;;;23.17;15.63;;;;;;;13.65;nan;99328.66;5055120;28;20338;-70
2022/03/20 10:50:05;;;;;;;17.30;13.97;;;;;;;13.58;nan;99330.53;5055161;28;20200;-71
2022/03/20 10:52:32;;;;;;;18.43;13.97;;;;;;;13.63;nan;99327.22;5054892;28;20198;-70
2022/03/20 10:54:59;;;;;;;18.07;13.80;;;;;;;13.75;nan;99326.34;5054830;28;20225;-71
2022/03/20 10:57:35;;;;;;;17.13;13.97;;;;;;;14.01;nan;99318.28;5054440;28;20749;-71
2022/03/20 11:00:10;;;;;;;18.97;14.03;;;;;;;13.81;nan;99320.19;5054634;28;20246;-71
2022/03/20 11:02:39;;;;;;;16.90;13.67;;;;;;;13.87;nan;99327.38;5054687;28;20189;-70
2022/03/20 11:05:05;;;;;;;17.63;14.13;;;;;;;14.32;nan;99328.28;5054361;28;20237;-71
2022/03/20 11:07:32;;;;;;;16.47;13.03;;;;;;;14.40;nan;99322.72;5054073;28;20205;-70
2022/03/20 11:10:00;;;;;;;20.60;14.17;;;;;;;14.83;nan;99319.19;5054421;28;20295;-71
2022/03/20 11:12:33;;;;;;;21.33;14.60;;;;;;;14.35;nan;99322.53;5054335;28;20247;-71
2022/03/20 11:15:04;;;;;;;20.67;14.30;;;;;;;13.92;nan;99326.72;5054132;28;20229;-70
2022/03/20 11:17:45;;;;;;;16.83;14.00;;;;;;;14.07;nan;99320.13;5053932;28;20205;-71
2022/03/20 11:20:14;;;;;;;16.87;13.77;;;;;;;14.24;nan;99315.97;5053759;28;20201;-71
2022/03/20 11:23:04;;;;;;;16.20;13.17;;;;;;;14.17;nan;99314.34;5054237;28;20209;-70
2022/03/20 11:25:33;;;;;;;21.80;14.73;;;;;;;14.52;nan;99313.00;5053992;28;20225;-70
2022/03/20 11:28:03;;;;;;;20.43;15.67;;;;;;;14.35;nan;99312.66;5054203;28;20233;-71
2022/03/20 11:30:34;;;;;;;19.63;16.30;;;;;;;14.42;nan;99324.13;5053813;28;20651;-71
2022/03/20 11:33:02;;;;;;;17.70;15.47;;;;;;;14.52;nan;99321.81;5053999;28;20678;-71
2022/03/20 11:35:33;;;;;;;19.47;15.50;;;;;;;14.54;nan;99319.78;5053455;28;20619;-71
2022/03/20 11:38:22;;;;;;;21.83;15.47;;;;;;;14.55;nan;99324.09;5053998;28;20209;-71
2022/03/20 11:41:11;;;;;;;18.10;14.90;;;;;;;14.45;nan;99313.03;5053870;28;20244;-70
2022/03/20 11:43:44;;;;;;;18.80;13.93;;;;;;;14.46;nan;99308.47;5053867;28;20205;-70
2022/03/20 11:46:28;;;;;;;20.73;17.17;;;;;;;14.75;nan;99308.72;5053809;28;20205;-70
2022/03/20 11:49:17;;;;;;;19.23;17.10;;;;;;;14.76;nan;99310.38;5053907;28;20185;-71
2022/03/20 11:51:57;;;;;;;20.47;17.00;;;;;;;14.76;nan;99302.34;5053174;28;20737;-70
2022/03/20 11:54:52;;;;;;;23.87;16.53;;;;;;;14.91;nan;99297.50;5053367;28;20224;-70
2022/03/20 11:57:25;;;;;;;20.33;16.83;;;;;;;15.08;nan;99304.00;5053425;28;20681;-70
2022/03/20 11:59:54;;;;;;;19.67;16.13;;;;;;;14.77;nan;99293.28;5053240;28;20664;-70
2022/03/20 12:02:34;;;;;;;18.63;15.40;;;;;;;14.83;nan;99291.59;5053448;28;20310;-70
2022/03/20 12:05:16;;;;;;;21.07;15.33;;;;;;;14.95;nan;99293.38;5053296;28;20228;-70
2022/03/20 12:08:05;;;;;;;20.70;14.30;;;;;;;14.98;nan;99286.75;5052227;28;20189;-70
2022/03/20 12:10:56;;;;;;;18.40;13.10;;;;;;;14.67;nan;99284.91;5068772;28;20192;-71
2022/03/20 12:13:49;;;;;;;16.33;11.90;;;;;;;14.99;nan;99289.22;5053170;28;20205;-70
2022/03/20 12:16:45;;;;;;;16.67;12.90;;;;;;;15.20;nan;99283.47;5053259;28;20185;-71
2022/03/20 12:19:14;;;;;;;16.13;12.30;;;;;;;14.97;nan;99275.22;5031462;28;20713;-70
2022/03/20 12:22:01;;;;;;;17.10;11.93;;;;;;;15.25;nan;99277.47;5053321;28;20201;-71
2022/03/20 12:24:37;;;;;;;17.67;12.47;;;;;;;15.21;nan;99270.91;5052777;28;20229;-70
2022/03/20 12:27:22;;;;;;;14.20;12.20;;;;;;;15.31;nan;99272.06;5052747;28;20672;-70
2022/03/20 12:29:49;;;;;;;17.87;12.80;;;;;;;15.09;nan;99268.13;5053134;28;20205;-70